Time;durP1;ratioP1;P1;durP2;ratioP2;P2;SDS_P1;SDS_P2;PMS_P1;PMS_P2;Temp;Humidity;BMP_temperature;BMP_pressure;BME280_temperature;BME280_humidity;BME280_pressure;Samples;Min_cycle;Max_cycle;Signal;HPM_P1;HPM_P2
2022/01/07 00:00:54;;;;;;;16.03;6.20;;;2.40;99.90;;;;;;4979190;28;20054;-87
2022/01/07 00:03:29;;;;;;;13.90;5.83;;;2.40;99.90;;;;;;4978929;28;20509;-87
2022/01/07 00:06:02;;;;;;;19.80;7.20;;;3.80;99.90;;;;;;4979207;28;20084;-87
2022/01/07 00:08:29;;;;;;;15.03;5.93;;;2.40;99.90;;;;;;4979308;28;20050;-88
2022/01/07 00:11:01;;;;;;;16.70;5.40;;;2.40;99.90;;;;;;4978299;28;20047;-88
2022/01/07 00:13:36;;;;;;;16.77;6.40;;;2.90;99.90;;;;;;4991304;28;20026;-88
2022/01/07 00:16:08;;;;;;;16.60;6.10;;;3.60;99.90;;;;;;5006722;28;20052;-88
2022/01/07 00:18:37;;;;;;;14.47;5.93;;;2.20;99.90;;;;;;4996920;28;20096;-88
2022/01/07 00:21:09;;;;;;;17.77;5.80;;;2.50;99.90;;;;;;4981329;28;20517;-88
2022/01/07 00:23:37;;;;;;;15.70;5.60;;;2.60;99.90;;;;;;4995235;28;20069;-89
2022/01/07 00:26:09;;;;;;;14.73;5.73;;;2.60;99.90;;;;;;4995142;28;20508;-88
2022/01/07 00:28:44;;;;;;;18.03;5.50;;;2.40;99.90;;;;;;4978636;28;20133;-89
2022/01/07 00:31:15;;;;;;;14.07;5.43;;;2.80;99.90;;;;;;4995788;28;20117;-88
2022/01/07 00:33:47;;;;;;;14.13;5.13;;;2.60;99.90;;;;;;4995869;28;20057;-87
2022/01/07 00:36:18;;;;;;;16.90;5.60;;;2.50;99.90;;;;;;4978502;28;20103;-88
2022/01/07 00:38:46;;;;;;;18.07;5.47;;;3.40;99.90;;;;;;4977695;28;20049;-88
2022/01/07 00:41:18;;;;;;;15.43;6.20;;;2.60;99.90;;;;;;4978423;28;20046;-88
2022/01/07 00:43:50;;;;;;;16.53;5.90;;;2.60;99.90;;;;;;4978284;28;20049;-88
2022/01/07 00:46:22;;;;;;;17.23;5.60;;;2.50;99.90;;;;;;4978780;28;20082;-88
2022/01/07 00:51:23;;;;;;;17.83;5.73;;;2.60;99.90;;;;;;5018726;23;20110;-88
2022/01/07 00:54:01;;;;;;;15.07;5.53;;;3.10;99.90;;;;;;5061833;23;20062;-88
2022/01/07 00:56:32;;;;;;;13.70;5.40;;;2.50;99.90;;;;;;4900476;29;20048;-89
2022/01/07 00:59:01;;;;;;;16.20;5.57;;;2.30;99.90;;;;;;4983468;23;20046;-88
2022/01/07 01:01:33;;;;;;;13.60;5.80;;;4.00;99.90;;;;;;4994858;28;20050;-89
2022/01/07 01:04:02;;;;;;;14.30;6.00;;;2.60;99.90;;;;;;4994305;28;20049;-88
2022/01/07 01:06:31;;;;;;;16.73;5.90;;;4.30;99.90;;;;;;4994484;28;20042;-88
2022/01/07 01:09:03;;;;;;;13.77;5.87;;;2.30;99.90;;;;;;4994337;28;20049;-88
2022/01/07 01:11:32;;;;;;;16.53;5.30;;;2.00;99.90;;;;;;5007641;23;20050;-88
2022/01/07 01:14:05;;;;;;;15.37;5.30;;;2.60;99.90;;;;;;5011239;23;20045;-88
2022/01/07 01:16:36;;;;;;;17.13;5.90;;;2.50;99.90;;;;;;4997887;28;20042;-88
2022/01/07 01:19:06;;;;;;;14.50;5.43;;;2.50;99.90;;;;;;4996419;28;20505;-87
2022/01/07 01:21:38;;;;;;;15.93;5.33;;;2.20;99.90;;;;;;4997299;28;20128;-87
2022/01/07 01:24:11;;;;;;;14.50;5.60;;;2.40;99.90;;;;;;4997237;28;20041;-87
2022/01/07 01:26:40;;;;;;;16.27;5.95;;;2.00;99.90;;;;;;4996625;28;20096;-87
2022/01/07 01:29:08;;;;;;;18.17;6.10;;;2.30;99.90;;;;;;4997754;28;20053;-87
2022/01/07 01:31:40;;;;;;;15.97;5.90;;;1.60;99.90;;;;;;4997209;28;20371;-87
2022/01/07 01:34:09;;;;;;;15.33;6.20;;;1.90;99.90;;;;;;5002843;23;20116;-87
2022/01/07 01:36:42;;;;;;;17.87;6.13;;;2.30;99.90;;;;;;4996819;28;20096;-87
2022/01/07 01:39:12;;;;;;;15.73;6.23;;;2.70;99.90;;;;;;5003541;23;20108;-87
2022/01/07 01:41:44;;;;;;;18.20;6.50;;;3.20;99.90;;;;;;4996544;28;20050;-87
2022/01/07 01:44:12;;;;;;;15.00;5.73;;;0.80;99.90;;;;;;5010536;23;20057;-88
2022/01/07 01:46:49;;;;;;;17.80;6.70;;;1.70;99.90;;;;;;5013916;28;20060;-87
2022/01/07 01:49:16;;;;;;;19.67;6.33;;;2.90;99.90;;;;;;5034922;23;20501;-88
2022/01/07 01:51:48;;;;;;;15.40;6.13;;;2.90;99.90;;;;;;4996527;28;20132;-88
2022/01/07 01:54:17;;;;;;;17.83;6.10;;;1.60;99.90;;;;;;4995838;28;20057;-88
2022/01/07 01:56:49;;;;;;;16.77;6.03;;;1.70;99.90;;;;;;4996717;28;20128;-88
2022/01/07 01:59:27;;;;;;;17.37;6.50;;;2.60;99.90;;;;;;4996873;28;20081;-87
2022/01/07 02:01:53;;;;;;;16.47;6.47;;;1.70;99.90;;;;;;4995965;28;20428;-88
2022/01/07 02:04:22;;;;;;;19.53;7.70;;;1.60;99.90;;;;;;4996922;28;20549;-88
2022/01/07 02:06:54;;;;;;;17.30;6.50;;;1.70;99.90;;;;;;4996837;28;20052;-88
2022/01/07 02:09:31;;;;;;;17.47;7.13;;;1.40;99.90;;;;;;4996160;28;20034;-88
2022/01/07 02:11:56;;;;;;;18.63;6.77;;;1.60;99.90;;;;;;4999249;28;20050;-89
2022/01/07 02:14:22;;;;;;;17.13;7.27;;;1.80;99.90;;;;;;5021081;28;20084;-87
2022/01/07 02:16:54;;;;;;;19.53;8.33;;;2.10;99.90;;;;;;4995527;28;20056;-88
2022/01/07 02:19:34;;;;;;;18.33;7.50;;;3.80;99.90;;;;;;4996604;28;20042;-88
2022/01/07 02:22:04;;;;;;;18.90;8.53;;;1.30;99.90;;;;;;4996087;28;20050;-87
2022/01/07 02:24:34;;;;;;;22.77;8.53;;;1.60;99.90;;;;;;5013047;28;20494;-88
2022/01/07 02:27:05;;;;;;;18.60;8.63;;;2.70;99.90;;;;;;4996042;28;20038;-88
2022/01/07 02:29:34;;;;;;;20.30;8.27;;;1.70;99.90;;;;;;5012970;28;20050;-87
2022/01/07 02:32:03;;;;;;;22.47;8.60;;;1.90;99.90;;;;;;4995815;28;20041;-87
2022/01/07 02:34:36;;;;;;;23.70;9.47;;;1.70;99.90;;;;;;4995663;28;20178;-87
2022/01/07 02:37:04;;;;;;;22.63;9.83;;;-0.20;99.90;;;;;;4995126;28;20365;-88
2022/01/07 02:39:36;;;;;;;21.50;9.33;;;1.50;99.90;;;;;;4996408;28;20054;-87
2022/01/07 02:42:08;;;;;;;26.03;10.70;;;2.20;99.90;;;;;;5013308;28;20412;-88
2022/01/07 02:44:37;;;;;;;21.53;9.77;;;1.60;99.90;;;;;;4995047;28;20125;-88
2022/01/07 02:47:08;;;;;;;23.60;10.03;;;1.30;99.90;;;;;;4996035;28;20546;-87
2022/01/07 02:49:37;;;;;;;22.60;10.27;;;2.20;99.90;;;;;;4978579;28;20105;-88
2022/01/07 02:52:09;;;;;;;22.47;9.83;;;1.50;99.90;;;;;;4975564;28;20407;-88
2022/01/07 02:54:41;;;;;;;22.67;11.00;;;2.80;99.90;;;;;;4976356;28;20046;-88
2022/01/07 02:57:16;;;;;;;22.20;10.90;;;1.40;99.90;;;;;;4993835;28;20121;-88
2022/01/07 02:59:48;;;;;;;22.33;11.10;;;2.40;99.90;;;;;;4974940;28;20129;-88
2022/01/07 03:02:17;;;;;;;22.67;10.87;;;1.40;99.90;;;;;;4975073;28;20046;-88
2022/01/07 03:04:48;;;;;;;20.97;10.40;;;1.40;99.90;;;;;;4992340;28;20054;-88
2022/01/07 03:07:17;;;;;;;27.40;12.03;;;1.50;99.90;;;;;;4975817;28;20050;-89
2022/01/07 03:09:43;;;;;;;24.50;11.97;;;1.20;99.90;;;;;;4993193;28;20050;-88
2022/01/07 03:12:09;;;;;;;27.53;11.97;;;2.90;99.90;;;;;;4975524;28;20050;-88
2022/01/07 03:14:40;;;;;;;24.40;11.10;;;1.40;99.90;;;;;;4975981;28;20050;-88
2022/01/07 03:17:09;;;;;;;28.00;11.80;;;1.40;99.90;;;;;;4989230;28;20053;-88
2022/01/07 03:19:42;;;;;;;27.67;11.47;;;1.20;99.90;;;;;;4978148;28;20050;-88
2022/01/07 03:22:11;;;;;;;25.67;11.98;;;3.10;99.90;;;;;;4976325;28;20282;-88
2022/01/07 03:24:43;;;;;;;25.80;12.07;;;1.90;99.90;;;;;;4975839;28;20045;-88
2022/01/07 03:27:12;;;;;;;22.67;11.67;;;1.50;99.90;;;;;;4975243;28;20054;-88
2022/01/07 03:29:41;;;;;;;24.03;11.53;;;2.70;99.90;;;;;;4976147;28;20474;-88
2022/01/07 03:32:12;;;;;;;22.50;12.63;;;2.40;99.90;;;;;;4976264;28;20482;-88
2022/01/07 03:34:45;;;;;;;26.90;12.33;;;1.20;99.90;;;;;;4975348;28;20157;-88
2022/01/07 03:37:14;;;;;;;24.15;11.05;;;1.10;99.90;;;;;;4975973;28;20065;-88
2022/01/07 03:39:46;;;;;;;21.50;10.53;;;1.20;99.90;;;;;;4975472;28;20057;-88
2022/01/07 03:42:15;;;;;;;23.23;11.50;;;1.20;99.90;;;;;;4976054;28;20054;-88
2022/01/07 03:44:46;;;;;;;22.53;10.93;;;1.20;99.90;;;;;;4975873;28;20050;-88
2022/01/07 03:47:18;;;;;;;25.17;12.10;;;2.10;99.90;;;;;;4975681;28;20047;-89
2022/01/07 03:49:48;;;;;;;23.37;11.20;;;1.20;99.90;;;;;;4975206;28;20080;-89
2022/01/07 03:52:19;;;;;;;24.27;12.90;;;0.30;99.90;;;;;;4976014;28;20057;-89
2022/01/07 03:54:50;;;;;;;26.27;12.07;;;1.60;99.90;;;;;;4974947;28;20068;-89
2022/01/07 03:57:19;;;;;;;23.33;12.23;;;2.70;99.90;;;;;;4975684;28;20046;-89
2022/01/07 04:02:16;;;;;;;26.17;10.90;;;1.40;99.90;;;;;;5053535;23;20046;-88
2022/01/07 04:04:46;;;;;;;23.17;11.43;;;1.20;99.90;;;;;;5021919;28;20037;-88
2022/01/07 04:07:15;;;;;;;25.77;12.43;;;1.10;99.90;;;;;;5028973;28;20136;-87
2022/01/07 04:12:18;;;;;;;22.17;11.83;;;1.60;99.90;;;;;;5016955;23;20132;-88
2022/01/07 04:14:56;;;;;;;28.67;12.47;;;2.40;99.90;;;;;;5011208;28;20413;-88
2022/01/07 04:17:22;;;;;;;24.83;11.63;;;2.90;99.90;;;;;;5063433;23;20520;-88
2022/01/07 04:19:48;;;;;;;25.03;10.90;;;0.60;99.90;;;;;;4994199;28;20053;-88
2022/01/07 04:22:21;;;;;;;21.30;11.33;;;1.80;99.90;;;;;;5008079;23;20049;-87
2022/01/07 04:24:51;;;;;;;20.50;11.07;;;1.80;99.90;;;;;;4994686;28;20054;-88
2022/01/07 04:27:22;;;;;;;22.87;10.87;;;1.90;99.90;;;;;;4994833;28;20050;-88
2022/01/07 04:29:51;;;;;;;21.20;10.83;;;1.90;99.90;;;;;;5036592;23;20151;-88
2022/01/07 04:33:10;;;;;;;22.37;11.00;;;3.60;99.90;;;;;;4994427;28;20064;-87
2022/01/07 04:36:57;;;;;;;23.07;10.57;;;2.00;99.90;;;;;;4993407;28;20062;-88
2022/01/07 04:39:28;;;;;;;20.63;10.17;;;1.00;99.90;;;;;;4994443;28;20066;-87
2022/01/07 04:42:00;;;;;;;18.97;9.70;;;1.30;99.90;;;;;;4999061;28;20057;-88
2022/01/07 04:44:29;;;;;;;20.90;10.30;;;2.40;99.90;;;;;;5001330;28;20048;-87
2022/01/07 04:46:55;;;;;;;22.20;10.40;;;1.70;99.90;;;;;;5010896;28;20018;-87
2022/01/07 04:50:17;;;;;;;21.17;10.88;;;1.80;99.90;;;;;;5023982;28;20052;-88
2022/01/07 04:52:46;;;;;;;22.13;9.98;;;2.10;99.90;;;;;;4998103;28;20542;-87
2022/01/07 04:55:21;;;;;;;21.93;9.90;;;1.60;99.90;;;;;;5015437;28;20052;-88
2022/01/07 04:57:48;;;;;;;23.13;10.97;;;1.40;99.90;;;;;;4997059;28;20053;-88
2022/01/07 05:00:21;;;;;;;26.07;10.53;;;2.00;99.90;;;;;;4997145;28;20042;-88
2022/01/07 05:02:50;;;;;;;19.65;9.88;;;1.40;99.90;;;;;;5012479;28;20060;-87
2022/01/07 05:05:22;;;;;;;17.97;9.33;;;2.20;99.90;;;;;;4995151;28;20050;-88
2022/01/07 05:08:08;;;;;;;20.37;9.97;;;1.70;99.90;;;;;;4996703;28;20406;-88
2022/01/07 05:10:34;;;;;;;21.70;10.27;;;1.60;99.90;;;;;;4997882;28;20100;-88
2022/01/07 05:13:06;;;;;;;22.07;10.43;;;1.70;99.90;;;;;;4996377;28;20121;-88
2022/01/07 05:15:31;;;;;;;19.63;9.60;;;0.80;99.90;;;;;;4997524;28;20514;-88
2022/01/07 05:18:03;;;;;;;18.43;9.93;;;1.70;99.90;;;;;;4997191;28;20073;-88
2022/01/07 05:20:32;;;;;;;18.63;9.43;;;1.60;99.90;;;;;;5000979;23;20200;-88
2022/01/07 05:23:04;;;;;;;18.73;10.03;;;1.70;99.90;;;;;;4993990;28;20532;-88
2022/01/07 05:25:38;;;;;;;19.73;8.97;;;2.00;99.90;;;;;;4977706;28;20042;-88
2022/01/07 05:28:06;;;;;;;20.38;9.65;;;2.10;99.90;;;;;;4977886;28;20107;-89
2022/01/07 05:30:35;;;;;;;19.67;9.50;;;1.80;99.90;;;;;;4995487;28;20458;-89
2022/01/07 05:35:37;;;;;;;18.23;8.87;;;1.80;99.90;;;;;;5019657;23;20050;-88
2022/01/07 05:38:06;;;;;;;17.37;9.03;;;2.50;99.90;;;;;;4997084;28;20052;-88
2022/01/07 05:40:38;;;;;;;20.50;9.70;;;1.70;99.90;;;;;;4996757;28;20085;-88
2022/01/07 05:43:09;;;;;;;17.70;9.03;;;1.70;99.90;;;;;;4981109;28;20042;-87
2022/01/07 05:45:40;;;;;;;21.33;9.03;;;1.70;99.90;;;;;;4997287;28;20501;-90
2022/01/07 05:48:12;;;;;;;19.60;8.63;;;1.90;99.90;;;;;;4996471;28;20042;-88
2022/01/07 05:50:41;;;;;;;16.63;8.67;;;2.80;99.90;;;;;;4997323;28;20485;-88
2022/01/07 05:53:14;;;;;;;17.47;8.63;;;2.40;99.90;;;;;;4997402;28;20085;-88
2022/01/07 05:55:43;;;;;;;16.40;9.05;;;2.20;99.90;;;;;;5000440;28;20057;-89
2022/01/07 05:58:12;;;;;;;16.80;9.07;;;1.70;99.90;;;;;;5016531;28;20050;-88
2022/01/07 06:00:48;;;;;;;18.03;9.13;;;0.60;99.90;;;;;;4996944;28;20481;-88
2022/01/07 06:03:20;;;;;;;17.27;8.60;;;1.80;99.90;;;;;;4996688;28;20054;-88
2022/01/07 06:05:49;;;;;;;18.47;9.17;;;1.50;99.90;;;;;;5012306;28;20057;-88
2022/01/07 06:08:17;;;;;;;18.83;8.97;;;1.60;99.90;;;;;;4995869;28;20481;-88
2022/01/07 06:10:49;;;;;;;17.90;8.33;;;1.90;99.90;;;;;;4996489;28;20037;-88
2022/01/07 06:13:21;;;;;;;18.23;9.33;;;2.50;99.90;;;;;;4996574;28;20077;-87
2022/01/07 06:15:52;;;;;;;16.13;7.90;;;1.20;99.90;;;;;;4995666;28;20041;-88
2022/01/07 06:18:21;;;;;;;15.10;8.40;;;1.70;99.90;;;;;;5010759;28;20028;-87
2022/01/07 06:20:48;;;;;;;15.77;7.97;;;1.60;99.90;;;;;;5005811;28;20042;-87
2022/01/07 06:23:22;;;;;;;16.27;7.70;;;2.30;99.90;;;;;;4996805;28;20049;-88
2022/01/07 06:25:54;;;;;;;17.17;8.30;;;1.80;99.90;;;;;;4996269;28;20054;-88
2022/01/07 06:28:24;;;;;;;14.57;7.93;;;1.90;99.90;;;;;;4996800;28;20100;-88
2022/01/07 06:30:54;;;;;;;15.67;7.70;;;3.00;99.90;;;;;;4995403;28;20103;-88
2022/01/07 06:33:30;;;;;;;17.97;8.80;;;3.00;99.90;;;;;;4995962;28;20058;-88
2022/01/07 06:35:56;;;;;;;16.13;8.17;;;1.80;99.90;;;;;;4994918;28;20053;-88
2022/01/07 06:38:29;;;;;;;18.57;8.70;;;2.20;99.90;;;;;;4996277;28;20129;-88
2022/01/07 06:40:58;;;;;;;14.10;7.35;;;2.80;99.90;;;;;;4996102;28;20108;-88
2022/01/07 06:43:30;;;;;;;14.70;8.10;;;1.80;99.90;;;;;;4995766;28;20041;-88
2022/01/07 06:45:59;;;;;;;16.47;7.97;;;2.10;99.90;;;;;;4995655;28;20050;-88
2022/01/07 06:48:30;;;;;;;14.83;7.90;;;1.90;99.90;;;;;;4995737;28;20050;-88
2022/01/07 06:50:59;;;;;;;14.07;8.03;;;2.10;99.90;;;;;;4995178;28;20144;-88
2022/01/07 06:53:35;;;;;;;13.43;7.47;;;2.90;99.90;;;;;;4995939;28;20108;-87
2022/01/07 06:56:03;;;;;;;15.63;8.43;;;2.00;99.90;;;;;;4995591;28;20050;-88
2022/01/07 06:58:35;;;;;;;17.77;8.27;;;2.20;99.90;;;;;;4995259;28;20057;-87
2022/01/07 07:01:06;;;;;;;16.50;8.37;;;1.70;99.90;;;;;;4995555;28;20038;-88
2022/01/07 07:03:32;;;;;;;16.13;8.57;;;2.30;99.90;;;;;;5012579;28;20461;-88
2022/01/07 07:06:07;;;;;;;15.43;8.70;;;1.90;99.90;;;;;;4994781;28;20073;-88
2022/01/07 07:08:42;;;;;;;15.80;8.33;;;2.00;99.90;;;;;;4995857;28;20054;-88
2022/01/07 07:11:08;;;;;;;16.80;8.87;;;1.90;99.90;;;;;;4994890;28;20470;-87
2022/01/07 07:13:41;;;;;;;16.30;8.93;;;2.00;99.90;;;;;;4995348;28;20100;-88
2022/01/07 07:16:10;;;;;;;18.17;10.27;;;2.10;99.90;;;;;;4995301;28;20038;-89
2022/01/07 07:18:42;;;;;;;19.27;8.97;;;1.30;99.90;;;;;;4995028;28;20138;-89
2022/01/07 07:21:10;;;;;;;16.10;9.63;;;2.10;99.90;;;;;;5011816;28;20048;-87
2022/01/07 07:23:46;;;;;;;18.43;10.90;;;2.00;99.90;;;;;;4995285;28;20128;-89
2022/01/07 07:26:12;;;;;;;16.83;9.37;;;3.10;99.90;;;;;;4994827;28;20389;-88
2022/01/07 07:28:45;;;;;;;17.77;9.80;;;2.10;99.90;;;;;;4995231;28;20046;-89
2022/01/07 07:31:16;;;;;;;19.73;9.67;;;2.00;99.90;;;;;;4995272;28;20042;-89
2022/01/07 07:36:29;;;;;;;18.43;9.67;;;2.90;99.90;;;;;;4991925;28;20058;-87
2022/01/07 07:39:14;;;;;;;19.60;10.93;;;3.20;99.90;;;;;;4990697;28;20054;-85
2022/01/07 07:41:41;;;;;;;20.13;11.40;;;3.50;99.90;;;;;;4993413;28;20461;-84
2022/01/07 07:44:19;;;;;;;18.57;10.43;;;2.20;99.90;;;;;;4993348;28;20105;-87
2022/01/07 07:46:45;;;;;;;20.63;10.80;;;2.20;99.90;;;;;;4991404;28;20438;-85
2022/01/07 07:49:14;;;;;;;20.97;11.70;;;2.30;99.90;;;;;;5001100;28;20045;-84
2022/01/07 07:51:46;;;;;;;24.90;13.07;;;2.40;99.90;;;;;;4996815;28;20580;-85
2022/01/07 07:54:15;;;;;;;25.73;16.23;;;2.10;99.90;;;;;;4993254;28;20056;-86
2022/01/07 07:56:47;;;;;;;21.50;12.53;;;2.20;99.90;;;;;;4993143;28;20048;-85
2022/01/07 07:59:15;;;;;;;26.23;15.47;;;2.20;99.90;;;;;;4991828;28;20042;-85
2022/01/07 08:01:47;;;;;;;21.60;12.47;;;2.20;99.90;;;;;;4992066;28;20058;-85
2022/01/07 08:04:20;;;;;;;25.73;12.97;;;2.10;99.90;;;;;;4991642;28;20505;-86
2022/01/07 08:06:49;;;;;;;20.33;11.50;;;2.30;99.90;;;;;;4988212;28;20383;-85
2022/01/07 08:09:21;;;;;;;30.17;15.93;;;2.50;99.90;;;;;;4981036;28;20478;-85
2022/01/07 08:11:53;;;;;;;24.57;16.20;;;2.50;99.90;;;;;;4979461;28;20050;-85
2022/01/07 08:17:06;;;;;;;27.83;15.37;;;3.10;99.90;;;;;;4995579;28;20545;-85
2022/01/07 08:19:33;;;;;;;25.30;13.60;;;2.50;99.90;;;;;;4996523;28;20406;-85
2022/01/07 08:21:58;;;;;;;26.70;14.37;;;2.40;99.90;;;;;;4994186;28;20558;-85
2022/01/07 08:24:24;;;;;;;25.20;14.20;;;2.60;99.90;;;;;;4995228;28;20125;-86
2022/01/07 08:26:53;;;;;;;23.60;13.73;;;3.10;99.90;;;;;;4996134;28;20050;-85
2022/01/07 08:29:31;;;;;;;25.57;13.70;;;2.80;99.90;;;;;;4994538;28;20402;-86
2022/01/07 08:34:58;;;;;;;24.60;13.60;;;3.80;99.90;;;;;;4935187;29;20055;-85
2022/01/07 08:37:28;;;;;;;26.50;14.27;;;2.60;99.90;;;;;;4982984;28;20093;-85
2022/01/07 08:39:57;;;;;;;30.03;14.50;;;2.80;99.90;;;;;;4994564;28;20549;-85
2022/01/07 08:42:25;;;;;;;27.83;14.67;;;2.80;99.90;;;;;;4994047;28;20049;-85
2022/01/07 08:44:54;;;;;;;30.80;15.60;;;2.80;99.90;;;;;;4995813;28;20410;-85
2022/01/07 08:47:25;;;;;;;28.67;15.50;;;2.60;99.90;;;;;;4995847;28;20038;-86
2022/01/07 08:49:54;;;;;;;28.60;15.87;;;2.80;99.90;;;;;;4994658;28;20060;-86
2022/01/07 08:52:26;;;;;;;28.13;14.87;;;3.00;99.90;;;;;;4995014;28;20070;-87
2022/01/07 08:54:52;;;;;;;27.03;16.23;;;4.00;99.90;;;;;;4995214;28;20447;-90
2022/01/07 08:57:21;;;;;;;35.33;17.70;;;3.00;99.90;;;;;;4993814;28;20050;-89
2022/01/07 08:59:48;;;;;;;30.97;17.43;;;3.50;99.90;;;;;;4995699;28;20042;-87
2022/01/07 09:02:14;;;;;;;31.00;17.03;;;3.90;99.90;;;;;;4994493;28;20149;-87
2022/01/07 09:04:42;;;;;;;27.93;15.70;;;2.90;99.90;;;;;;4993729;28;20050;-87
2022/01/07 09:07:13;;;;;;;39.73;26.73;;;2.70;99.90;;;;;;4995491;28;20046;-87
2022/01/07 09:09:45;;;;;;;27.50;15.27;;;3.00;99.90;;;;;;4994291;28;20049;-87
2022/01/07 09:12:14;;;;;;;30.30;16.50;;;4.40;99.90;;;;;;4993659;28;20192;-87
2022/01/07 09:14:46;;;;;;;28.50;16.17;;;3.20;99.90;;;;;;4994045;28;20498;-87
2022/01/07 09:17:15;;;;;;;28.13;15.67;;;3.30;99.90;;;;;;4994719;28;20474;-87
2022/01/07 09:19:52;;;;;;;32.73;18.20;;;3.50;99.90;;;;;;4999686;28;20051;-88
2022/01/07 09:22:23;;;;;;;32.40;16.80;;;3.20;99.90;;;;;;5007373;28;20129;-87
2022/01/07 09:24:52;;;;;;;29.33;16.73;;;3.10;99.90;;;;;;4993255;28;20039;-87
2022/01/07 09:27:25;;;;;;;39.90;21.53;;;3.20;99.90;;;;;;4994594;28;20482;-87
2022/01/07 09:29:53;;;;;;;47.42;25.05;;;3.40;99.90;;;;;;4993772;28;20069;-87
2022/01/07 09:32:25;;;;;;;30.30;16.30;;;3.50;99.90;;;;;;4993094;28;20485;-87
2022/01/07 09:34:53;;;;;;;32.80;18.03;;;3.50;99.90;;;;;;5006496;28;20065;-86
2022/01/07 09:37:25;;;;;;;32.00;17.53;;;3.60;99.90;;;;;;5014669;28;20452;-87
2022/01/07 09:39:58;;;;;;;38.87;22.27;;;3.70;99.90;;;;;;4996048;28;20489;-86
2022/01/07 09:42:27;;;;;;;31.40;17.30;;;3.80;99.90;;;;;;4999537;28;20049;-87
2022/01/07 09:44:57;;;;;;;34.23;18.10;;;3.80;99.90;;;;;;5000927;28;20045;-87
2022/01/07 09:47:28;;;;;;;28.20;16.07;;;2.70;99.90;;;;;;4988311;28;20046;-88
2022/01/07 09:49:59;;;;;;;29.43;18.47;;;4.90;99.90;;;;;;4987337;28;20043;-87
2022/01/07 09:52:38;;;;;;;28.07;16.30;;;5.20;99.90;;;;;;4987026;28;20049;-87
2022/01/07 09:55:04;;;;;;;30.73;16.00;;;3.90;99.90;;;;;;5004770;28;20175;-87
2022/01/07 09:57:36;;;;;;;27.13;15.47;;;4.10;99.90;;;;;;4987489;28;20030;-87
2022/01/07 10:00:09;;;;;;;30.93;17.23;;;4.20;99.90;;;;;;4986750;28;20398;-86
2022/01/07 10:02:57;;;;;;;30.03;16.83;;;4.20;99.90;;;;;;4980113;28;20081;-86
2022/01/07 10:05:23;;;;;;;28.20;16.00;;;4.20;99.90;;;;;;4979729;28;20090;-85
2022/01/07 10:07:48;;;;;;;29.80;16.10;;;4.30;99.90;;;;;;4993562;28;20074;-86
2022/01/07 10:10:29;;;;;;;26.57;16.17;;;4.20;99.90;;;;;;4994524;28;20128;-86
2022/01/07 10:13:03;;;;;;;31.57;18.53;;;4.30;99.90;;;;;;4977073;28;20054;-86
2022/01/07 10:15:34;;;;;;;31.40;16.65;;;4.30;99.90;;;;;;4993850;28;20100;-87
2022/01/07 10:18:09;;;;;;;28.93;16.60;;;4.30;99.90;;;;;;4976735;28;20077;-88
2022/01/07 10:21:09;;;;;;;27.23;16.13;;;4.30;99.90;;;;;;4993297;28;20042;-87
2022/01/07 10:23:35;;;;;;;28.03;15.87;;;4.90;99.90;;;;;;4977195;28;20108;-87
2022/01/07 10:26:10;;;;;;;27.23;15.07;;;4.10;99.90;;;;;;4976712;28;20494;-87
2022/01/07 10:28:39;;;;;;;26.17;15.23;;;4.30;99.90;;;;;;4976046;28;20042;-86
2022/01/07 10:31:07;;;;;;;25.73;14.70;;;4.10;99.90;;;;;;4993890;28;20125;-85
2022/01/07 10:33:38;;;;;;;25.77;16.40;;;4.20;99.90;;;;;;4993305;28;20590;-86
2022/01/07 10:36:07;;;;;;;25.50;15.10;;;4.10;99.90;;;;;;4975403;28;20050;-86
2022/01/07 10:38:53;;;;;;;21.27;12.47;;;4.10;99.90;;;;;;4993200;28;20505;-85
2022/01/07 10:41:19;;;;;;;23.90;12.77;;;4.20;99.90;;;;;;4976529;28;20054;-86
2022/01/07 10:43:46;;;;;;;19.30;10.77;;;4.10;99.90;;;;;;4975252;28;20042;-85
2022/01/07 10:46:13;;;;;;;14.90;8.43;;;4.10;99.90;;;;;;4993952;28;20074;-85
2022/01/07 10:48:47;;;;;;;17.00;7.40;;;3.90;99.90;;;;;;4976121;28;20042;-86
2022/01/07 10:51:37;;;;;;;12.53;5.97;;;3.80;99.90;;;;;;4999853;28;20042;-85
2022/01/07 10:54:05;;;;;;;9.67;3.60;;;3.80;99.90;;;;;;4980135;28;20058;-86
2022/01/07 10:56:40;;;;;;;9.77;3.50;;;3.60;99.90;;;;;;4985590;28;20446;-85
2022/01/07 10:59:15;;;;;;;9.50;4.00;;;3.60;99.90;;;;;;5000994;28;20045;-85
2022/01/07 11:01:43;;;;;;;12.00;4.07;;;3.80;99.90;;;;;;4994675;28;20437;-85
2022/01/07 11:04:18;;;;;;;11.77;4.63;;;3.60;99.90;;;;;;4992595;28;20100;-87
2022/01/07 11:06:45;;;;;;;13.57;6.63;;;3.80;99.90;;;;;;5001660;28;20125;-86
2022/01/07 11:09:12;;;;;;;13.63;6.53;;;3.70;99.90;;;;;;5002718;28;20379;-87
2022/01/07 11:11:54;;;;;;;14.63;7.47;;;3.90;99.90;;;;;;5003223;28;21442;-87
2022/01/07 11:14:23;;;;;;;16.40;8.03;;;3.90;99.90;;;;;;5000578;28;20046;-86
2022/01/07 11:16:49;;;;;;;39.43;21.77;;;3.80;99.90;;;;;;4980166;28;20038;-88
2022/01/07 11:19:22;;;;;;;23.10;12.90;;;3.90;99.90;;;;;;4975874;28;20049;-87
2022/01/07 11:21:51;;;;;;;29.08;14.98;;;4.00;99.90;;;;;;4993057;28;20077;-85
2022/01/07 11:24:45;;;;;;;43.07;22.50;;;4.00;99.90;;;;;;4992392;28;20047;-85
2022/01/07 11:27:15;;;;;;;;;;;4.10;99.90;;;;;;4976150;28;20046;-85
2022/01/07 11:30:04;;;;;;;30.90;16.27;;;4.10;99.90;;;;;;4975864;28;19921;-86
2022/01/07 11:32:49;;;;;;;35.90;18.53;;;4.10;99.90;;;;;;4975415;28;20050;-83
2022/01/07 11:35:21;;;;;;;32.27;16.90;;;4.00;99.90;;;;;;4998112;28;20054;-85
2022/01/07 11:37:58;;;;;;;32.73;17.17;;;4.20;99.90;;;;;;4984879;28;20098;-85
2022/01/07 11:40:33;;;;;;;33.87;17.90;;;4.30;99.90;;;;;;4989328;28;20046;-86
2022/01/07 11:43:05;;;;;;;32.60;18.00;;;4.60;99.90;;;;;;5000569;28;20057;-85
2022/01/07 11:45:38;;;;;;;27.57;15.87;;;4.90;99.90;;;;;;4984631;28;20043;-86
2022/01/07 11:48:13;;;;;;;29.93;15.63;;;6.30;99.90;;;;;;5000922;28;20042;-85
2022/01/07 11:51:13;;;;;;;24.57;14.43;;;5.10;99.90;;;;;;4987477;28;20037;-85
2022/01/07 11:53:39;;;;;;;27.40;14.20;;;5.00;99.90;;;;;;4986584;28;20053;-85
2022/01/07 11:56:06;;;;;;;30.70;18.20;;;4.90;99.90;;;;;;4987881;28;20045;-85
2022/01/07 11:58:51;;;;;;;23.27;12.77;;;4.90;99.90;;;;;;5005008;28;20048;-86
2022/01/07 12:01:48;;;;;;;22.43;11.67;;;4.60;99.90;;;;;;5006380;28;20071;-85
2022/01/07 12:04:21;;;;;;;20.17;9.50;;;4.60;99.90;;;;;;5006296;28;20050;-85
2022/01/07 12:06:50;;;;;;;14.37;6.73;;;4.60;99.90;;;;;;4986014;28;20041;-85
2022/01/07 12:09:40;;;;;;;13.53;6.07;;;5.10;99.90;;;;;;5006930;28;20038;-85
2022/01/07 12:12:11;;;;;;;12.63;4.87;;;4.50;99.90;;;;;;4980223;28;20054;-84
2022/01/07 12:14:53;;;;;;;10.10;2.30;;;4.30;99.90;;;;;;4987576;28;20077;-85
2022/01/07 12:17:22;;;;;;;13.47;3.90;;;3.30;99.90;;;;;;4993566;28;20096;-85
2022/01/07 12:19:52;;;;;;;10.57;3.73;;;3.30;99.90;;;;;;5007737;28;20593;-84
2022/01/07 12:22:21;;;;;;;12.20;3.43;;;3.70;99.90;;;;;;4993820;28;20099;-86
2022/01/07 12:25:00;;;;;;;8.07;2.40;;;3.90;99.90;;;;;;4997429;28;20050;-86
2022/01/07 12:27:26;;;;;;;9.20;2.93;;;3.60;99.90;;;;;;5014746;28;20159;-84
2022/01/07 12:29:54;;;;;;;9.80;2.10;;;3.60;99.90;;;;;;4987680;28;20498;-83
2022/01/07 12:32:27;;;;;;;9.57;2.10;;;3.40;99.90;;;;;;4984307;28;20058;-83
2022/01/07 12:34:53;;;;;;;10.33;2.87;;;3.20;99.90;;;;;;5001197;28;20062;-83
2022/01/07 12:37:21;;;;;;;10.60;2.10;;;3.40;99.90;;;;;;5006864;28;20050;-83
2022/01/07 12:39:51;;;;;;;11.33;2.20;;;3.30;99.90;;;;;;4995900;28;20098;-83
2022/01/07 12:42:17;;;;;;;9.23;2.20;;;4.10;99.90;;;;;;4985364;28;20050;-84
2022/01/07 12:44:52;;;;;;;9.17;2.10;;;3.20;99.90;;;;;;4985235;28;20132;-83
2022/01/07 12:47:27;;;;;;;6.83;1.80;;;3.20;99.90;;;;;;4987016;28;20034;-83
2022/01/07 12:49:57;;;;;;;13.03;2.50;;;3.30;99.90;;;;;;5003464;28;20366;-83
2022/01/07 12:52:29;;;;;;;10.97;2.13;;;3.10;99.90;;;;;;4986841;28;20491;-84
2022/01/07 12:55:09;;;;;;;9.77;1.80;;;3.20;99.90;;;;;;5005142;28;20104;-83
2022/01/07 12:57:42;;;;;;;6.90;1.70;;;3.10;99.90;;;;;;4977058;28;20070;-85
2022/01/07 13:00:28;;;;;;;9.80;2.25;;;3.00;99.90;;;;;;5000829;28;20115;-84
2022/01/07 13:02:58;;;;;;;6.93;1.67;;;3.10;99.90;;;;;;4994881;28;20058;-84
2022/01/07 13:05:31;;;;;;;6.73;1.80;;;3.80;99.90;;;;;;5005282;28;20049;-84
2022/01/07 13:08:12;;;;;;;22.65;12.98;;;3.10;99.90;;;;;;4992974;28;20050;-83
2022/01/07 13:10:40;;;;;;;19.37;10.47;;;3.10;99.90;;;;;;4993522;28;20133;-84
2022/01/07 13:13:30;;;;;;;8.97;2.50;;;3.20;99.90;;;;;;5005409;28;20129;-85
2022/01/07 13:16:04;;;;;;;7.57;1.90;;;3.30;99.90;;;;;;5008040;28;20565;-84
2022/01/07 13:18:35;;;;;;;8.93;2.53;;;3.40;99.90;;;;;;5007029;28;20048;-85
2022/01/07 13:21:25;;;;;;;9.60;2.90;;;3.50;99.90;;;;;;5011704;28;20394;-87
2022/01/07 13:24:03;;;;;;;10.17;2.97;;;3.70;99.90;;;;;;5013349;28;20034;-88
2022/01/07 13:26:37;;;;;;;13.13;4.00;;;3.80;99.90;;;;;;5009716;28;20461;-86